sensor_id;sensor_type;location;lat;lon;timestamp;pressure;altitude;pressure_sealevel;temperature;humidity
71465;BME280;59274;49.874;9.154;2022-09-14T00:01:10;99531.13;;;17.16;100.00
71465;BME280;59274;49.874;9.154;2022-09-14T00:03:35;99529.59;;;17.15;100.00
71465;BME280;59274;49.874;9.154;2022-09-14T00:06:03;99520.59;;;17.14;100.00
71465;BME280;59274;49.874;9.154;2022-09-14T00:08:28;99521.47;;;17.11;100.00
71465;BME280;59274;49.874;9.154;2022-09-14T00:10:54;99524.97;;;17.12;100.00
71465;BME280;59274;49.874;9.154;2022-09-14T00:13:19;99522.75;;;17.07;100.00
71465;BME280;59274;49.874;9.154;2022-09-14T00:15:44;99526.81;;;17.02;100.00
71465;BME280;59274;49.874;9.154;2022-09-14T00:18:11;99530.97;;;17.07;100.00
71465;BME280;59274;49.874;9.154;2022-09-14T00:20:37;99535.84;;;17.15;100.00
71465;BME280;59274;49.874;9.154;2022-09-14T00:23:03;99553.50;;;17.14;100.00
71465;BME280;59274;49.874;9.154;2022-09-14T00:25:29;99551.50;;;17.02;100.00
71465;BME280;59274;49.874;9.154;2022-09-14T00:27:56;99551.16;;;17.00;100.00
71465;BME280;59274;49.874;9.154;2022-09-14T00:30:23;99559.38;;;17.00;100.00
71465;BME280;59274;49.874;9.154;2022-09-14T00:32:49;99557.84;;;16.99;100.00
71465;BME280;59274;49.874;9.154;2022-09-14T00:35:15;99561.34;;;17.00;100.00
71465;BME280;59274;49.874;9.154;2022-09-14T00:37:41;99561.03;;;16.98;100.00
71465;BME280;59274;49.874;9.154;2022-09-14T00:40:07;99562.66;;;16.95;100.00
71465;BME280;59274;49.874;9.154;2022-09-14T00:42:36;99570.88;;;16.95;100.00
71465;BME280;59274;49.874;9.154;2022-09-14T00:45:12;99573.63;;;16.95;100.00
71465;BME280;59274;49.874;9.154;2022-09-14T00:47:38;99568.13;;;16.95;100.00
71465;BME280;59274;49.874;9.154;2022-09-14T00:50:04;99570.97;;;16.92;100.00
71465;BME280;59274;49.874;9.154;2022-09-14T00:52:32;99558.38;;;16.94;100.00
71465;BME280;59274;49.874;9.154;2022-09-14T00:55:01;99543.97;;;16.90;100.00
71465;BME280;59274;49.874;9.154;2022-09-14T00:57:30;99537.28;;;16.91;100.00
71465;BME280;59274;49.874;9.154;2022-09-14T00:59:58;99527.53;;;16.90;100.00
71465;BME280;59274;49.874;9.154;2022-09-14T01:02:26;99534.97;;;16.90;100.00
71465;BME280;59274;49.874;9.154;2022-09-14T01:04:51;99536.25;;;16.85;100.00
71465;BME280;59274;49.874;9.154;2022-09-14T01:16:47;99511.88;;;16.74;100.00
71465;BME280;59274;49.874;9.154;2022-09-14T01:22:20;99500.72;;;16.65;100.00
71465;BME280;59274;49.874;9.154;2022-09-14T01:24:52;99497.56;;;16.67;100.00
71465;BME280;59274;49.874;9.154;2022-09-14T01:27:32;99490.88;;;16.68;100.00
71465;BME280;59274;49.874;9.154;2022-09-14T01:32:37;99480.22;;;16.70;100.00
71465;BME280;59274;49.874;9.154;2022-09-14T01:35:26;99483.09;;;16.66;100.00
71465;BME280;59274;49.874;9.154;2022-09-14T01:38:08;99480.75;;;16.65;100.00
71465;BME280;59274;49.874;9.154;2022-09-14T01:40:38;99479.81;;;16.71;100.00
71465;BME280;59274;49.874;9.154;2022-09-14T01:43:37;99483.25;;;16.59;100.00
71465;BME280;59274;49.874;9.154;2022-09-14T01:46:16;99484.09;;;16.56;100.00
71465;BME280;59274;49.874;9.154;2022-09-14T01:48:50;99490.69;;;16.59;100.00
71465;BME280;59274;49.874;9.154;2022-09-14T01:51:24;99490.78;;;16.55;100.00
71465;BME280;59274;49.874;9.154;2022-09-14T01:53:59;99499.03;;;16.55;100.00
71465;BME280;59274;49.874;9.154;2022-09-14T01:56:46;99494.38;;;16.52;100.00
71465;BME280;59274;49.874;9.154;2022-09-14T01:59:17;99495.50;;;16.55;100.00
71465;BME280;59274;49.874;9.154;2022-09-14T02:01:58;99508.00;;;16.56;100.00
71465;BME280;59274;49.874;9.154;2022-09-14T02:07:17;99498.53;;;16.60;100.00
71465;BME280;59274;49.874;9.154;2022-09-14T02:09:44;99501.31;;;16.57;100.00
71465;BME280;59274;49.874;9.154;2022-09-14T02:12:11;99497.38;;;16.58;100.00
71465;BME280;59274;49.874;9.154;2022-09-14T02:14:37;99495.78;;;16.60;100.00
71465;BME280;59274;49.874;9.154;2022-09-14T02:17:03;99479.72;;;16.59;100.00
71465;BME280;59274;49.874;9.154;2022-09-14T02:19:33;99473.47;;;16.58;100.00
71465;BME280;59274;49.874;9.154;2022-09-14T02:22:01;99474.25;;;16.59;100.00
71465;BME280;59274;49.874;9.154;2022-09-14T02:24:27;99469.53;;;16.59;100.00
71465;BME280;59274;49.874;9.154;2022-09-14T02:26:54;99473.47;;;16.58;100.00
71465;BME280;59274;49.874;9.154;2022-09-14T02:29:20;99469.97;;;16.58;100.00
71465;BME280;59274;49.874;9.154;2022-09-14T02:33:04;99475.09;;;16.56;100.00
71465;BME280;59274;49.874;9.154;2022-09-14T02:36:01;99471.16;;;16.57;100.00
71465;BME280;59274;49.874;9.154;2022-09-14T02:38:28;99469.97;;;16.58;100.00
71465;BME280;59274;49.874;9.154;2022-09-14T02:41:17;99467.63;;;16.56;100.00
71465;BME280;59274;49.874;9.154;2022-09-14T02:49:26;99459.09;;;16.54;100.00
71465;BME280;59274;49.874;9.154;2022-09-14T02:55:17;99461.50;;;16.52;100.00
71465;BME280;59274;49.874;9.154;2022-09-14T02:57:23;99457.22;;;16.51;100.00
71465;BME280;59274;49.874;9.154;2022-09-14T02:59:49;99463.88;;;16.50;100.00
71465;BME280;59274;49.874;9.154;2022-09-14T03:02:17;99459.53;;;16.53;100.00
71465;BME280;59274;49.874;9.154;2022-09-14T03:04:42;99457.97;;;16.52;100.00
71465;BME280;59274;49.874;9.154;2022-09-14T03:07:08;99454.38;;;16.55;100.00
71465;BME280;59274;49.874;9.154;2022-09-14T03:09:34;99454.38;;;16.55;100.00
71465;BME280;59274;49.874;9.154;2022-09-14T03:12:02;99456.69;;;16.56;100.00
71465;BME280;59274;49.874;9.154;2022-09-14T03:14:27;99461.31;;;16.59;100.00
71465;BME280;59274;49.874;9.154;2022-09-14T03:16:53;99455.47;;;16.57;100.00
71465;BME280;59274;49.874;9.154;2022-09-14T03:19:18;99441.78;;;16.57;100.00
71465;BME280;59274;49.874;9.154;2022-09-14T03:21:44;99435.97;;;16.55;100.00
71465;BME280;59274;49.874;9.154;2022-09-14T03:24:09;99431.69;;;16.54;100.00
71465;BME280;59274;49.874;9.154;2022-09-14T03:26:35;99420.72;;;16.54;100.00
71465;BME280;59274;49.874;9.154;2022-09-14T03:29:03;99415.66;;;16.53;100.00
71465;BME280;59274;49.874;9.154;2022-09-14T03:31:30;99414.78;;;16.56;100.00
71465;BME280;59274;49.874;9.154;2022-09-14T03:33:58;99409.41;;;16.52;100.00
71465;BME280;59274;49.874;9.154;2022-09-14T03:36:26;99411.13;;;16.46;100.00
71465;BME280;59274;49.874;9.154;2022-09-14T03:38:54;99402.50;;;16.48;100.00
71465;BME280;59274;49.874;9.154;2022-09-14T03:41:21;99399.06;;;16.43;100.00
71465;BME280;59274;49.874;9.154;2022-09-14T03:43:47;99400.19;;;16.46;100.00
71465;BME280;59274;49.874;9.154;2022-09-14T03:46:18;99389.22;;;16.46;100.00
71465;BME280;59274;49.874;9.154;2022-09-14T03:48:45;99391.59;;;16.44;100.00
71465;BME280;59274;49.874;9.154;2022-09-14T03:51:12;99383.38;;;16.44;100.00
71465;BME280;59274;49.874;9.154;2022-09-14T03:53:39;99383.91;;;16.39;100.00
71465;BME280;59274;49.874;9.154;2022-09-14T03:56:07;99376.91;;;16.38;100.00
71465;BME280;59274;49.874;9.154;2022-09-14T03:58:33;99383.56;;;16.37;100.00
71465;BME280;59274;49.874;9.154;2022-09-14T04:01:09;99375.00;;;16.35;100.00
71465;BME280;59274;49.874;9.154;2022-09-14T04:03:35;99371.41;;;16.38;100.00
71465;BME280;59274;49.874;9.154;2022-09-14T04:06:01;99374.16;;;16.38;100.00
71465;BME280;59274;49.874;9.154;2022-09-14T04:08:31;99362.34;;;16.41;100.00
71465;BME280;59274;49.874;9.154;2022-09-14T04:10:57;99359.91;;;16.43;100.00
71465;BME280;59274;49.874;9.154;2022-09-14T04:13:22;99358.28;;;16.45;100.00
71465;BME280;59274;49.874;9.154;2022-09-14T04:15:56;99355.97;;;16.44;100.00
71465;BME280;59274;49.874;9.154;2022-09-14T04:18:22;99356.66;;;16.48;100.00
71465;BME280;59274;49.874;9.154;2022-09-14T04:21:04;99355.19;;;16.43;100.00
71465;BME280;59274;49.874;9.154;2022-09-14T04:23:31;99353.66;;;16.42;100.00
71465;BME280;59274;49.874;9.154;2022-09-14T04:25:57;99355.53;;;16.45;100.00
71465;BME280;59274;49.874;9.154;2022-09-14T04:28:23;99357.84;;;16.47;100.00
71465;BME280;59274;49.874;9.154;2022-09-14T04:30:57;99348.75;;;16.50;100.00
71465;BME280;59274;49.874;9.154;2022-09-14T04:33:23;99346.44;;;16.49;100.00
71465;BME280;59274;49.874;9.154;2022-09-14T04:35:57;99358.94;;;16.50;100.00
71465;BME280;59274;49.874;9.154;2022-09-14T04:38:23;99356.31;;;16.46;100.00
71465;BME280;59274;49.874;9.154;2022-09-14T04:40:49;99365.31;;;16.47;100.00
71465;BME280;59274;49.874;9.154;2022-09-14T04:43:14;99364.19;;;16.44;100.00
71465;BME280;59274;49.874;9.154;2022-09-14T04:45:39;99367.03;;;16.40;100.00
71465;BME280;59274;49.874;9.154;2022-09-14T04:48:05;99364.13;;;16.48;100.00
71465;BME280;59274;49.874;9.154;2022-09-14T04:50:31;99364.19;;;16.44;100.00
71465;BME280;59274;49.874;9.154;2022-09-14T04:52:57;99366.94;;;16.44;100.00
71465;BME280;59274;49.874;9.154;2022-09-14T04:55:22;99365.81;;;16.41;100.00
71465;BME280;59274;49.874;9.154;2022-09-14T04:57:49;99365.06;;;16.41;100.00
71465;BME280;59274;49.874;9.154;2022-09-14T05:00:14;99365.06;;;16.41;100.00
71465;BME280;59274;49.874;9.154;2022-09-14T05:02:40;99361.81;;;16.46;100.00
71465;BME280;59274;49.874;9.154;2022-09-14T05:05:06;99358.38;;;16.42;100.00
71465;BME280;59274;49.874;9.154;2022-09-14T05:07:32;99353.22;;;16.44;100.00
71465;BME280;59274;49.874;9.154;2022-09-14T05:09:58;99354.00;;;16.44;100.00
71465;BME280;59274;49.874;9.154;2022-09-14T05:12:23;99335.25;;;16.43;100.00
71465;BME280;59274;49.874;9.154;2022-09-14T05:14:49;99345.00;;;16.44;100.00
71465;BME280;59274;49.874;9.154;2022-09-14T05:17:14;99341.59;;;16.40;100.00
71465;BME280;59274;49.874;9.154;2022-09-14T05:19:40;99341.91;;;16.42;100.00
71465;BME280;59274;49.874;9.154;2022-09-14T05:22:05;99341.50;;;16.43;100.00
71465;BME280;59274;49.874;9.154;2022-09-14T05:24:31;99347.09;;;16.40;100.00
71465;BME280;59274;49.874;9.154;2022-09-14T05:26:56;99348.94;;;16.43;100.00
71465;BME280;59274;49.874;9.154;2022-09-14T05:29:22;99354.53;;;16.39;100.00
71465;BME280;59274;49.874;9.154;2022-09-14T05:31:47;99363.28;;;16.34;100.00
71465;BME280;59274;49.874;9.154;2022-09-14T05:34:13;99365.94;;;16.38;100.00
71465;BME280;59274;49.874;9.154;2022-09-14T05:36:39;99370.41;;;16.32;100.00
71465;BME280;59274;49.874;9.154;2022-09-14T05:39:06;99374.78;;;16.29;100.00
71465;BME280;59274;49.874;9.154;2022-09-14T05:41:31;99369.63;;;16.31;100.00
71465;BME280;59274;49.874;9.154;2022-09-14T05:43:57;99364.16;;;16.31;100.00
71465;BME280;59274;49.874;9.154;2022-09-14T05:46:23;99351.22;;;16.32;100.00
71465;BME280;59274;49.874;9.154;2022-09-14T05:48:49;99351.31;;;16.28;100.00
71465;BME280;59274;49.874;9.154;2022-09-14T05:51:21;99362.06;;;16.35;100.00
71465;BME280;59274;49.874;9.154;2022-09-14T05:53:51;99358.75;;;16.28;100.00
71465;BME280;59274;49.874;9.154;2022-09-14T05:56:18;99358.84;;;16.24;100.00
71465;BME280;59274;49.874;9.154;2022-09-14T05:58:44;99360.06;;;16.23;100.00
71465;BME280;59274;49.874;9.154;2022-09-14T06:03:36;99351.06;;;16.23;100.00
71465;BME280;59274;49.874;9.154;2022-09-14T06:06:03;99353.81;;;16.23;100.00
71465;BME280;59274;49.874;9.154;2022-09-14T06:08:29;99348.56;;;16.28;100.00
71465;BME280;59274;49.874;9.154;2022-09-14T06:10:54;99351.66;;;16.30;100.00
71465;BME280;59274;49.874;9.154;2022-09-14T06:13:20;99355.50;;;16.33;100.00
71465;BME280;59274;49.874;9.154;2022-09-14T06:15:48;99354.72;;;16.32;100.00
71465;BME280;59274;49.874;9.154;2022-09-14T06:18:13;99360.63;;;16.31;100.00
71465;BME280;59274;49.874;9.154;2022-09-14T06:20:39;99345.75;;;16.32;100.00
71465;BME280;59274;49.874;9.154;2022-09-14T06:23:04;99347.16;;;16.36;100.00
71465;BME280;59274;49.874;9.154;2022-09-14T06:25:30;99345.31;;;16.33;100.00
71465;BME280;59274;49.874;9.154;2022-09-14T06:27:55;99340.91;;;16.36;100.00
71465;BME280;59274;49.874;9.154;2022-09-14T06:30:21;99337.31;;;16.39;100.00
71465;BME280;59274;49.874;9.154;2022-09-14T06:32:46;99340.41;;;16.41;100.00
71465;BME280;59274;49.874;9.154;2022-09-14T06:35:12;99341.91;;;16.42;100.00
71465;BME280;59274;49.874;9.154;2022-09-14T06:37:37;99335.66;;;16.41;100.00
71465;BME280;59274;49.874;9.154;2022-09-14T06:40:03;99340.06;;;16.39;100.00
71465;BME280;59274;49.874;9.154;2022-09-14T06:42:29;99337.97;;;16.43;100.00
71465;BME280;59274;49.874;9.154;2022-09-14T06:44:55;99329.75;;;16.43;100.00
71465;BME280;59274;49.874;9.154;2022-09-14T06:47:20;99322.53;;;16.49;100.00
71465;BME280;59274;49.874;9.154;2022-09-14T06:49:46;99325.63;;;16.51;100.00
71465;BME280;59274;49.874;9.154;2022-09-14T06:52:14;99326.63;;;16.57;100.00
71465;BME280;59274;49.874;9.154;2022-09-14T06:54:39;99323.81;;;16.61;100.00
71465;BME280;59274;49.874;9.154;2022-09-14T06:57:05;99327.13;;;16.68;100.00
71465;BME280;59274;49.874;9.154;2022-09-14T06:59:31;99336.00;;;16.72;100.00
71465;BME280;59274;49.874;9.154;2022-09-14T07:01:56;99340.53;;;16.79;100.00
71465;BME280;59274;49.874;9.154;2022-09-14T07:04:22;99341.28;;;16.79;100.00
71465;BME280;59274;49.874;9.154;2022-09-14T07:06:49;99348.88;;;16.88;100.00
71465;BME280;59274;49.874;9.154;2022-09-14T07:09:16;99344.06;;;16.92;100.00
71465;BME280;59274;49.874;9.154;2022-09-14T07:11:43;99355.78;;;16.93;100.00
71465;BME280;59274;49.874;9.154;2022-09-14T07:14:09;99363.25;;;16.92;100.00
71465;BME280;59274;49.874;9.154;2022-09-14T07:16:36;99364.38;;;16.95;100.00
71465;BME280;59274;49.874;9.154;2022-09-14T07:19:04;99359.44;;;17.02;100.00
71465;BME280;59274;49.874;9.154;2022-09-14T07:21:31;99364.28;;;17.11;100.00
71465;BME280;59274;49.874;9.154;2022-09-14T07:23:58;99379.44;;;17.15;100.00
71465;BME280;59274;49.874;9.154;2022-09-14T07:26:26;99370.44;;;17.15;100.00
71465;BME280;59274;49.874;9.154;2022-09-14T07:29:03;99372.75;;;17.16;100.00
71465;BME280;59274;49.874;9.154;2022-09-14T07:31:34;99369.78;;;17.23;100.00
71465;BME280;59274;49.874;9.154;2022-09-14T07:34:02;99374.94;;;17.21;100.00
71465;BME280;59274;49.874;9.154;2022-09-14T07:36:28;99373.72;;;17.22;100.00
71465;BME280;59274;49.874;9.154;2022-09-14T07:38:55;99374.28;;;17.30;100.00
71465;BME280;59274;49.874;9.154;2022-09-14T07:41:22;99361.31;;;17.43;100.00
71465;BME280;59274;49.874;9.154;2022-09-14T07:43:55;99359.34;;;17.56;100.00
71465;BME280;59274;49.874;9.154;2022-09-14T07:46:22;99353.41;;;17.71;100.00
71465;BME280;59274;49.874;9.154;2022-09-14T07:48:49;99354.63;;;17.82;100.00
71465;BME280;59274;49.874;9.154;2022-09-14T07:51:18;99355.78;;;17.94;100.00
71465;BME280;59274;49.874;9.154;2022-09-14T07:53:44;99356.75;;;18.00;100.00
71465;BME280;59274;49.874;9.154;2022-09-14T07:56:11;99361.06;;;18.01;100.00
71465;BME280;59274;49.874;9.154;2022-09-14T07:58:38;99355.56;;;18.01;100.00
71465;BME280;59274;49.874;9.154;2022-09-14T08:01:06;99362.06;;;17.94;100.00
71465;BME280;59274;49.874;9.154;2022-09-14T08:03:33;99360.09;;;17.95;100.00
71465;BME280;59274;49.874;9.154;2022-09-14T08:06:05;99349.31;;;17.88;100.00
71465;BME280;59274;49.874;9.154;2022-09-14T08:08:33;99353.47;;;17.92;100.00
71465;BME280;59274;49.874;9.154;2022-09-14T08:13:31;99368.25;;;17.73;100.00
71465;BME280;59274;49.874;9.154;2022-09-14T08:15:56;99372.78;;;17.67;100.00
71465;BME280;59274;49.874;9.154;2022-09-14T08:18:30;99365.16;;;17.71;100.00
71465;BME280;59274;49.874;9.154;2022-09-14T08:20:55;99361.53;;;17.87;100.00
71465;BME280;59274;49.874;9.154;2022-09-14T08:23:22;99364.75;;;18.07;100.00
71465;BME280;59274;49.874;9.154;2022-09-14T08:25:47;99371.56;;;18.15;100.00
71465;BME280;59274;49.874;9.154;2022-09-14T08:28:13;99365.25;;;18.27;100.00
71465;BME280;59274;49.874;9.154;2022-09-14T08:30:38;99355.28;;;18.43;100.00
71465;BME280;59274;49.874;9.154;2022-09-14T08:33:04;99359.88;;;18.58;100.00
71465;BME280;59274;49.874;9.154;2022-09-14T08:35:29;99368.38;;;18.73;100.00
71465;BME280;59274;49.874;9.154;2022-09-14T08:37:55;99358.94;;;18.83;100.00
71465;BME280;59274;49.874;9.154;2022-09-14T08:40:20;99365.44;;;18.89;100.00
71465;BME280;59274;49.874;9.154;2022-09-14T08:42:46;99367.59;;;18.94;100.00
71465;BME280;59274;49.874;9.154;2022-09-14T08:45:14;99374.03;;;19.00;100.00
71465;BME280;59274;49.874;9.154;2022-09-14T08:47:41;99373.34;;;19.09;100.00
71465;BME280;59274;49.874;9.154;2022-09-14T08:50:17;99376.88;;;19.18;100.00
71465;BME280;59274;49.874;9.154;2022-09-14T08:52:51;99381.94;;;19.20;100.00
71465;BME280;59274;49.874;9.154;2022-09-14T08:55:37;99389.47;;;19.29;100.00
71465;BME280;59274;49.874;9.154;2022-09-14T08:58:46;99400.84;;;19.40;100.00
71465;BME280;59274;49.874;9.154;2022-09-14T09:01:36;99413.41;;;19.41;98.46
71465;BME280;59274;49.874;9.154;2022-09-14T09:09:48;99418.81;;;19.23;100.00
71465;BME280;59274;49.874;9.154;2022-09-14T09:12:34;99417.06;;;19.07;100.00
71465;BME280;59274;49.874;9.154;2022-09-14T09:15:17;99415.59;;;18.93;100.00
71465;BME280;59274;49.874;9.154;2022-09-14T09:17:48;99419.75;;;18.76;100.00
71465;BME280;59274;49.874;9.154;2022-09-14T09:20:20;99414.97;;;18.67;100.00
71465;BME280;59274;49.874;9.154;2022-09-14T09:25:44;99433.13;;;18.52;100.00
71465;BME280;59274;49.874;9.154;2022-09-14T09:28:13;99439.53;;;18.49;100.00
71465;BME280;59274;49.874;9.154;2022-09-14T09:30:40;99424.88;;;18.52;100.00
71465;BME280;59274;49.874;9.154;2022-09-14T09:33:19;99419.94;;;18.60;100.00
71465;BME280;59274;49.874;9.154;2022-09-14T09:35:45;99425.44;;;18.60;100.00
71465;BME280;59274;49.874;9.154;2022-09-14T09:38:15;99425.13;;;18.58;100.00
71465;BME280;59274;49.874;9.154;2022-09-14T09:43:33;99397.03;;;18.63;100.00
71465;BME280;59274;49.874;9.154;2022-09-14T09:46:00;99400.38;;;18.80;100.00
71465;BME280;59274;49.874;9.154;2022-09-14T09:48:46;99398.81;;;19.00;100.00
71465;BME280;59274;49.874;9.154;2022-09-14T09:56:29;99409.56;;;19.07;100.00
71465;BME280;59274;49.874;9.154;2022-09-14T09:58:55;99404.13;;;19.16;100.00
71465;BME280;59274;49.874;9.154;2022-09-14T10:01:32;99408.13;;;19.25;100.00
71465;BME280;59274;49.874;9.154;2022-09-14T10:04:16;99394.00;;;19.13;100.00
71465;BME280;59274;49.874;9.154;2022-09-14T10:06:44;99390.75;;;19.06;100.00
71465;BME280;59274;49.874;9.154;2022-09-14T10:09:19;99385.19;;;18.97;100.00
71465;BME280;59274;49.874;9.154;2022-09-14T10:11:46;99379.69;;;18.97;100.00
71465;BME280;59274;49.874;9.154;2022-09-14T10:14:26;99378.50;;;19.07;100.00
71465;BME280;59274;49.874;9.154;2022-09-14T10:16:53;99372.34;;;19.25;100.00
71465;BME280;59274;49.874;9.154;2022-09-14T10:19:29;99372.84;;;19.32;100.00
71465;BME280;59274;49.874;9.154;2022-09-14T10:24:37;99355.56;;;19.41;100.00
71465;BME280;59274;49.874;9.154;2022-09-14T10:27:33;99336.69;;;19.61;100.00
71465;BME280;59274;49.874;9.154;2022-09-14T10:30:02;99335.22;;;19.87;100.00
71465;BME280;59274;49.874;9.154;2022-09-14T10:32:29;99327.25;;;19.89;100.00
71465;BME280;59274;49.874;9.154;2022-09-14T10:34:57;99321.91;;;19.95;100.00
71465;BME280;59274;49.874;9.154;2022-09-14T10:37:52;99316.97;;;19.90;100.00
71465;BME280;59274;49.874;9.154;2022-09-14T10:40:36;99311.63;;;20.05;100.00
71465;BME280;59274;49.874;9.154;2022-09-14T10:43:37;99315.00;;;20.18;100.00
71465;BME280;59274;49.874;9.154;2022-09-14T10:46:11;99313.19;;;20.15;100.00
71465;BME280;59274;49.874;9.154;2022-09-14T10:48:48;99298.78;;;20.20;100.00
71465;BME280;59274;49.874;9.154;2022-09-14T10:54:20;99290.72;;;20.86;97.48
71465;BME280;59274;49.874;9.154;2022-09-14T11:00:10;99282.19;;;21.17;95.00
71465;BME280;59274;49.874;9.154;2022-09-14T11:05:22;99285.41;;;21.06;94.64
71465;BME280;59274;49.874;9.154;2022-09-14T11:13:57;99279.56;;;20.62;94.81
71465;BME280;59274;49.874;9.154;2022-09-14T11:17:00;99276.81;;;20.62;96.32
71465;BME280;59274;49.874;9.154;2022-09-14T11:19:40;99270.38;;;20.65;96.17
71465;BME280;59274;49.874;9.154;2022-09-14T11:22:20;99267.31;;;20.63;99.36
71465;BME280;59274;49.874;9.154;2022-09-14T11:24:58;99275.78;;;20.50;100.00
71465;BME280;59274;49.874;9.154;2022-09-14T11:30:09;99271.81;;;20.51;100.00
71465;BME280;59274;49.874;9.154;2022-09-14T11:35:21;99267.97;;;20.49;97.94
71465;BME280;59274;49.874;9.154;2022-09-14T11:40:22;99272.19;;;20.68;98.62
71465;BME280;59274;49.874;9.154;2022-09-14T11:43:00;99271.16;;;20.65;99.08
71465;BME280;59274;49.874;9.154;2022-09-14T11:45:32;99266.66;;;20.77;99.33
71465;BME280;59274;49.874;9.154;2022-09-14T11:48:10;99258.72;;;20.61;99.60
71465;BME280;59274;49.874;9.154;2022-09-14T11:50:41;99249.75;;;20.42;99.81
71465;BME280;59274;49.874;9.154;2022-09-14T11:53:14;99252.81;;;20.35;100.00
71465;BME280;59274;49.874;9.154;2022-09-14T11:55:46;99248.38;;;20.28;100.00
71465;BME280;59274;49.874;9.154;2022-09-14T11:58:26;99257.09;;;20.27;100.00
71465;BME280;59274;49.874;9.154;2022-09-14T12:01:04;99258.63;;;20.19;100.00
71465;BME280;59274;49.874;9.154;2022-09-14T12:11:47;99263.41;;;20.00;100.00
71465;BME280;59274;49.874;9.154;2022-09-14T12:14:27;99271.34;;;19.98;100.00
71465;BME280;59274;49.874;9.154;2022-09-14T12:17:05;99269.66;;;19.91;100.00
71465;BME280;59274;49.874;9.154;2022-09-14T12:19:38;99260.78;;;19.97;100.00
71465;BME280;59274;49.874;9.154;2022-09-14T12:25:21;99268.16;;;20.00;100.00
71465;BME280;59274;49.874;9.154;2022-09-14T12:27:49;99264.75;;;20.05;100.00
71465;BME280;59274;49.874;9.154;2022-09-14T12:36:08;99260.63;;;19.91;100.00
71465;BME280;59274;49.874;9.154;2022-09-14T13:04:26;99278.53;;;19.68;99.40
71465;BME280;59274;49.874;9.154;2022-09-14T13:06:53;99272.72;;;19.66;98.99
71465;BME280;59274;49.874;9.154;2022-09-14T13:09:21;99262.31;;;19.70;98.91
71465;BME280;59274;49.874;9.154;2022-09-14T13:11:59;99264.94;;;19.74;98.62
71465;BME280;59274;49.874;9.154;2022-09-14T13:14:29;99259.72;;;19.76;98.26
71465;BME280;59274;49.874;9.154;2022-09-14T13:16:58;99257.72;;;19.76;99.24
71465;BME280;59274;49.874;9.154;2022-09-14T13:19:26;99255.72;;;19.77;99.35
71465;BME280;59274;49.874;9.154;2022-09-14T13:21:54;99243.19;;;19.76;99.63
71465;BME280;59274;49.874;9.154;2022-09-14T13:26:52;99229.25;;;19.70;100.00
71465;BME280;59274;49.874;9.154;2022-09-14T13:29:19;99228.19;;;19.68;100.00
71465;BME280;59274;49.874;9.154;2022-09-14T13:31:45;99220.84;;;19.74;100.00
71465;BME280;59274;49.874;9.154;2022-09-14T13:34:26;99222.22;;;19.78;100.00
71465;BME280;59274;49.874;9.154;2022-09-14T13:36:54;99214.25;;;19.80;100.00
71465;BME280;59274;49.874;9.154;2022-09-14T13:41:46;99210.88;;;19.85;100.00
71465;BME280;59274;49.874;9.154;2022-09-14T13:44:12;99204.78;;;19.81;100.00
71465;BME280;59274;49.874;9.154;2022-09-14T13:46:38;99206.13;;;19.77;100.00
71465;BME280;59274;49.874;9.154;2022-09-14T13:49:05;99202.78;;;19.73;100.00
71465;BME280;59274;49.874;9.154;2022-09-14T13:51:31;99207.53;;;19.72;100.00
71465;BME280;59274;49.874;9.154;2022-09-14T13:53:57;99205.22;;;19.71;100.00
71465;BME280;59274;49.874;9.154;2022-09-14T13:56:39;99202.16;;;19.69;100.00
71465;BME280;59274;49.874;9.154;2022-09-14T14:01:56;99187.31;;;19.57;100.00
71465;BME280;59274;49.874;9.154;2022-09-14T14:04:34;99187.47;;;19.53;100.00
71465;BME280;59274;49.874;9.154;2022-09-14T14:07:12;99186.84;;;19.49;100.00
71465;BME280;59274;49.874;9.154;2022-09-14T14:12:08;99162.50;;;19.39;100.00
71465;BME280;59274;49.874;9.154;2022-09-14T14:14:35;99178.69;;;19.37;100.00
71465;BME280;59274;49.874;9.154;2022-09-14T14:19:38;99173.78;;;19.13;100.00
71465;BME280;59274;49.874;9.154;2022-09-14T14:22:33;99154.94;;;18.94;100.00
71465;BME280;59274;49.874;9.154;2022-09-14T14:25:17;99115.94;;;18.86;100.00
71465;BME280;59274;49.874;9.154;2022-09-14T14:27:45;99153.06;;;18.82;100.00
71465;BME280;59274;49.874;9.154;2022-09-14T14:30:14;99148.00;;;18.80;100.00
71465;BME280;59274;49.874;9.154;2022-09-14T14:32:40;99136.22;;;18.70;100.00
71465;BME280;59274;49.874;9.154;2022-09-14T14:35:18;99156.84;;;18.66;100.00
71465;BME280;59274;49.874;9.154;2022-09-14T14:37:47;99145.19;;;18.62;100.00
71465;BME280;59274;49.874;9.154;2022-09-14T14:40:13;99129.16;;;18.69;100.00
71465;BME280;59274;49.874;9.154;2022-09-14T14:42:40;99118.66;;;18.77;100.00
71465;BME280;59274;49.874;9.154;2022-09-14T14:45:07;99118.97;;;18.79;100.00
71465;BME280;59274;49.874;9.154;2022-09-14T14:47:36;99166.63;;;18.76;100.00
71465;BME280;59274;49.874;9.154;2022-09-14T14:50:02;99164.78;;;18.64;100.00
71465;BME280;59274;49.874;9.154;2022-09-14T14:52:28;99162.63;;;18.59;100.00
71465;BME280;59274;49.874;9.154;2022-09-14T14:54:53;99110.88;;;18.85;100.00
71465;BME280;59274;49.874;9.154;2022-09-14T14:57:19;99101.28;;;19.07;100.00
71465;BME280;59274;49.874;9.154;2022-09-14T14:59:44;99092.28;;;19.25;100.00
71465;BME280;59274;49.874;9.154;2022-09-14T15:02:10;99094.72;;;19.41;100.00
71465;BME280;59274;49.874;9.154;2022-09-14T15:04:35;99098.72;;;19.49;100.00
71465;BME280;59274;49.874;9.154;2022-09-14T15:07:02;99097.81;;;19.52;100.00
71465;BME280;59274;49.874;9.154;2022-09-14T15:09:28;99091.38;;;19.46;100.00
71465;BME280;59274;49.874;9.154;2022-09-14T15:11:54;99101.91;;;19.39;100.00
71465;BME280;59274;49.874;9.154;2022-09-14T15:14:22;99101.59;;;19.28;100.00